createdAt,value
2019-01-10T00:02:03.675Z,35.8
2019-01-10T00:05:25.889Z,35.7
2019-01-10T00:08:48.085Z,35.7
2019-01-10T00:12:10.160Z,35.7
2019-01-10T00:15:32.375Z,35.7
2019-01-10T00:18:54.514Z,35.7
2019-01-10T00:22:16.714Z,35.7
2019-01-10T00:25:38.844Z,35.7
2019-01-10T00:29:01.142Z,35.6
2019-01-10T00:32:23.229Z,35.7
2019-01-10T00:35:45.445Z,35.6
2019-01-10T00:39:07.664Z,35.6
2019-01-10T00:42:29.788Z,35.6
2019-01-10T00:45:51.936Z,35.6
2019-01-10T00:49:14.164Z,35.6
2019-01-10T00:52:36.268Z,35.6
2019-01-10T00:55:58.420Z,35.6
2019-01-10T00:59:20.589Z,35.5
2019-01-10T01:02:43.103Z,35.6
2019-01-10T01:06:04.982Z,35.6
2019-01-10T01:09:27.110Z,35.5
2019-01-10T01:12:49.309Z,35.6
2019-01-10T01:16:11.532Z,35.6
2019-01-10T01:19:33.715Z,35.6
2019-01-10T01:22:55.834Z,35.5
2019-01-10T01:26:18.072Z,35.6
2019-01-10T01:29:40.160Z,35.5
2019-01-10T01:33:02.401Z,35.5
2019-01-10T01:36:24.618Z,35.5
2019-01-10T01:39:46.690Z,35.4
2019-01-10T01:43:08.945Z,35.5
2019-01-10T01:46:31.105Z,35.5
2019-01-10T01:49:53.210Z,35.5
2019-01-10T01:53:15.522Z,35.5
2019-01-10T01:56:37.548Z,35.4
2019-01-10T01:59:59.792Z,35.4
2019-01-10T02:03:21.998Z,35.3
2019-01-10T02:06:44.075Z,35.4
2019-01-10T02:10:06.372Z,35.4
2019-01-10T02:13:28.430Z,35.4
2019-01-10T02:16:50.666Z,35.3
2019-01-10T02:20:12.905Z,35.4
2019-01-10T02:23:34.957Z,35.4
2019-01-10T02:26:57.183Z,35.3
2019-01-10T02:30:19.350Z,35.4
2019-01-10T02:33:41.507Z,35.3
2019-01-10T02:37:03.732Z,35.3
2019-01-10T02:40:25.840Z,35.3
2019-01-10T02:43:47.997Z,35.4
2019-01-10T02:47:10.177Z,35.3
2019-01-10T02:50:32.553Z,35.2
2019-01-10T02:53:54.537Z,35.3
2019-01-10T02:57:16.780Z,35.2
2019-01-10T03:00:38.999Z,35.2
2019-01-10T03:04:01.056Z,35.2
2019-01-10T03:07:23.295Z,35.2
2019-01-10T03:10:45.402Z,35.2
2019-01-10T03:14:07.611Z,35.2
2019-01-10T03:17:29.736Z,35.1
2019-01-10T03:20:51.909Z,35.2
2019-01-10T03:24:14.246Z,35.2
2019-01-10T03:27:36.239Z,35.1
2019-01-10T03:30:58.507Z,35.1
2019-01-10T03:34:20.660Z,35.2
2019-01-10T03:37:42.837Z,35.1
2019-01-10T03:41:04.941Z,35.1
2019-01-10T03:44:27.210Z,35
2019-01-10T03:47:49.297Z,35.1
2019-01-10T03:51:11.557Z,35
2019-01-10T03:54:33.654Z,34.8
2019-01-10T03:57:55.895Z,34.8
2019-01-10T04:01:18.028Z,34.9
2019-01-10T04:04:40.184Z,34.9
2019-01-10T04:08:02.423Z,35
2019-01-10T04:11:24.521Z,34.9
2019-01-10T04:14:46.875Z,34.9
2019-01-10T04:18:08.851Z,35
2019-01-10T04:21:31.092Z,34.9
2019-01-10T04:24:53.220Z,34.7
2019-01-10T04:28:15.388Z,34.7
2019-01-10T04:31:37.635Z,34.8
2019-01-10T04:34:59.789Z,34.8
2019-01-10T04:38:21.998Z,34.9
2019-01-10T04:41:44.159Z,34.8
2019-01-10T04:45:06.250Z,34.8
2019-01-10T04:48:28.481Z,34.7
2019-01-10T04:51:50.597Z,34.8
2019-01-10T04:55:12.794Z,34.8
2019-01-10T04:58:35.009Z,34.9
2019-01-10T05:01:57.139Z,34.8
2019-01-10T05:05:19.371Z,34.8
2019-01-10T05:08:41.459Z,34.8
2019-01-10T05:12:03.719Z,34.8
2019-01-10T05:15:25.838Z,34.8
2019-01-10T05:18:48.003Z,34.8
2019-01-10T05:22:10.275Z,34.7
2019-01-10T05:25:32.466Z,34.7
2019-01-10T05:28:54.523Z,34.8
2019-01-10T05:32:16.728Z,34.8
2019-01-10T05:35:38.883Z,34.7
2019-01-10T05:39:01.237Z,34.7
2019-01-10T05:42:26.436Z,34.7
2019-01-10T05:45:45.410Z,34.8
2019-01-10T05:49:07.543Z,34.7
2019-01-10T05:52:29.741Z,34.8
2019-01-10T05:55:51.908Z,34.7
2019-01-10T05:59:14.079Z,34.7
2019-01-10T06:02:36.260Z,34.7
2019-01-10T06:05:58.513Z,34.8
2019-01-10T06:09:20.699Z,34.7
2019-01-10T06:12:42.762Z,34.7
2019-01-10T06:16:05.038Z,34.7
2019-01-10T06:19:27.172Z,34.8
2019-01-10T06:22:49.370Z,34.7
2019-01-10T06:26:11.551Z,34.8
2019-01-10T06:26:13.734Z,34.8
2019-01-10T06:29:33.713Z,34.8
2019-01-10T06:32:55.818Z,34.7
2019-01-10T06:36:17.975Z,34.7
2019-01-10T06:39:40.357Z,34.7
2019-01-10T06:43:02.482Z,34.8
2019-01-10T06:46:24.575Z,34.7
2019-01-10T06:49:46.680Z,34.8
2019-01-10T06:53:08.953Z,34.7
2019-01-10T06:56:31.118Z,34.7
2019-01-10T06:59:53.256Z,34.7
2019-01-10T07:03:15.444Z,34.6
2019-01-10T07:06:37.658Z,34.5
2019-01-10T07:10:00.243Z,34.5
2019-01-10T07:13:22.003Z,34.6
2019-01-10T07:16:44.231Z,34.7
2019-01-10T07:20:06.253Z,34.7
2019-01-10T07:23:28.505Z,34.7
2019-01-10T07:26:50.692Z,34.9
2019-01-10T07:30:12.935Z,34.9
2019-01-10T07:33:34.945Z,34.9
2019-01-10T07:36:57.130Z,34.9
2019-01-10T07:40:19.292Z,34.9
2019-01-10T07:43:41.647Z,34.9
2019-01-10T07:47:03.662Z,34.8
2019-01-10T07:50:25.891Z,34.8
2019-01-10T07:53:47.994Z,34.8
2019-01-10T07:57:10.267Z,34.9
2019-01-10T08:00:32.772Z,35
2019-01-10T08:00:33.294Z,35
2019-01-10T08:03:56.751Z,35
2019-01-10T08:07:16.686Z,35.1
2019-01-10T08:10:38.986Z,35.2
2019-01-10T08:14:01.077Z,35.2
2019-01-10T08:17:23.273Z,34.8
2019-01-10T08:20:45.389Z,31.8
2019-01-10T08:24:07.551Z,32.7
2019-01-10T08:27:29.800Z,32.6
2019-01-10T08:30:51.978Z,33.1
2019-01-10T08:34:14.066Z,33.6
2019-01-10T08:37:36.362Z,34.3
2019-01-10T08:40:58.516Z,34.2
2019-01-10T08:44:20.790Z,34.2
2019-01-10T08:47:42.771Z,34.3
2019-01-10T08:51:04.984Z,34.5
2019-01-10T08:54:27.197Z,34.2
2019-01-10T08:57:50.473Z,34.2
2019-01-10T09:01:11.457Z,34.2
2019-01-10T09:04:34.272Z,34.1
2019-01-10T09:07:55.808Z,34.1
2019-01-10T09:11:18.060Z,34.1
2019-01-10T09:14:40.187Z,34.1
2019-01-10T09:18:02.369Z,34
2019-01-10T09:21:24.597Z,34
2019-01-10T09:24:46.692Z,34
2019-01-10T09:28:08.847Z,33.9
2019-01-10T09:31:31.139Z,34
2019-01-10T09:34:56.584Z,33.9
2019-01-10T09:38:15.505Z,34
2019-01-10T09:41:37.553Z,34
2019-01-10T09:44:59.814Z,33.9
2019-01-10T09:48:21.901Z,33.9
2019-01-10T09:51:44.150Z,33.8
2019-01-10T09:55:06.317Z,33.9
2019-01-10T09:58:28.417Z,33.8
2019-01-10T10:01:50.612Z,33.8
2019-01-10T10:05:12.837Z,34.5
2019-01-10T10:08:34.966Z,34.2
2019-01-10T10:11:57.397Z,34.2
2019-01-10T10:15:19.369Z,34.6
2019-01-10T10:18:41.555Z,34.1
2019-01-10T10:22:03.658Z,33.9
2019-01-10T10:25:25.820Z,34.1
2019-01-10T10:28:47.980Z,34.1
2019-01-10T10:32:10.161Z,34
2019-01-10T10:35:32.383Z,34.1
2019-01-10T10:38:54.768Z,34.1
2019-01-10T10:42:16.682Z,34
2019-01-10T10:45:38.850Z,33.9
2019-01-10T10:49:01.018Z,33.8
2019-01-10T10:52:23.234Z,33.7
2019-01-10T10:55:45.422Z,33.7
2019-01-10T10:59:07.623Z,33.7
2019-01-10T11:02:29.754Z,33.6
2019-01-10T11:05:51.929Z,33.6
2019-01-10T11:09:14.113Z,33.6
2019-01-10T11:12:36.274Z,33.6
2019-01-10T11:15:58.438Z,33.6
2019-01-10T11:19:20.679Z,33.6
2019-01-10T11:22:42.793Z,33.5
2019-01-10T11:26:05.196Z,33.5
2019-01-10T11:29:27.211Z,33.6
2019-01-10T11:32:49.324Z,33.7
2019-01-10T11:36:11.666Z,33.7
2019-01-10T11:39:33.653Z,33.7
2019-01-10T11:42:55.839Z,33.6
2019-01-10T11:46:18.144Z,33.7
2019-01-10T11:49:40.207Z,33.9
2019-01-10T11:53:02.489Z,34
2019-01-10T11:56:24.531Z,34.1
2019-01-10T11:59:46.701Z,34.4
2019-01-10T12:03:08.906Z,34.6
2019-01-10T12:06:31.056Z,34.7
2019-01-10T12:09:53.290Z,34.9
2019-01-10T12:13:15.418Z,35.1
2019-01-10T12:16:37.575Z,35.2
2019-01-10T12:19:59.746Z,35.4
2019-01-10T12:23:21.926Z,35.4
2019-01-10T12:26:44.171Z,35.5
2019-01-10T12:30:06.280Z,35.5
2019-01-10T12:33:28.537Z,35.5
2019-01-10T12:36:50.621Z,35.6
2019-01-10T12:40:12.903Z,35.6
2019-01-10T12:43:34.978Z,35.6
2019-01-10T12:46:57.196Z,35.6
2019-01-10T12:50:19.341Z,35.7
2019-01-10T12:53:41.598Z,35.7
2019-01-10T12:57:03.680Z,35.8
2019-01-10T13:00:25.881Z,35.8
2019-01-10T13:03:48.182Z,32.5
2019-01-10T13:07:10.228Z,31
2019-01-10T13:10:32.403Z,32.2
2019-01-10T13:13:54.558Z,31.7
2019-01-10T13:17:16.808Z,30.9
2019-01-10T13:20:38.914Z,30.9
2019-01-10T13:24:01.069Z,30.9
2019-01-10T13:27:23.288Z,31.2
2019-01-10T13:30:45.555Z,31.3
2019-01-10T13:34:07.679Z,31.4
2019-01-10T13:37:29.791Z,31.7
2019-01-10T13:40:51.977Z,31.7
2019-01-10T13:44:14.138Z,32
2019-01-10T13:47:36.370Z,32.2
2019-01-10T13:50:58.576Z,32.3
2019-01-10T13:54:20.721Z,32.8
2019-01-10T13:57:42.900Z,32.7
2019-01-10T14:01:05.090Z,32.8
2019-01-10T14:04:27.180Z,32.9
2019-01-10T14:07:49.464Z,33
2019-01-10T14:11:11.550Z,33
2019-01-10T14:14:33.744Z,33.1
2019-01-10T14:17:55.970Z,33.3
2019-01-10T14:21:18.111Z,33.3
2019-01-10T14:24:40.322Z,33.3
2019-01-10T14:28:02.468Z,33.5
2019-01-10T14:31:24.614Z,33.5
2019-01-10T14:34:46.777Z,33.7
2019-01-10T14:38:08.955Z,33.7
2019-01-10T14:41:31.255Z,33.8
2019-01-10T14:44:53.315Z,33.9
2019-01-10T14:48:15.462Z,34
2019-01-10T14:51:37.649Z,34
2019-01-10T14:54:59.825Z,34.1
2019-01-10T14:58:22.028Z,34.1
2019-01-10T15:01:44.167Z,34.1
2019-01-10T15:05:06.414Z,34.2
2019-01-10T15:08:28.590Z,34.3
2019-01-10T15:11:50.886Z,34.3
2019-01-10T15:15:12.935Z,34.3
2019-01-10T15:18:35.126Z,34.4
2019-01-10T15:21:57.218Z,34.5
2019-01-10T15:25:19.403Z,34.5
2019-01-10T15:28:41.728Z,34.6
2019-01-10T15:32:03.848Z,34.6
2019-01-10T15:35:25.930Z,34.6
2019-01-10T15:38:48.166Z,34.7
2019-01-10T15:42:10.283Z,34.7
2019-01-10T15:45:32.515Z,34.7
2019-01-10T15:48:54.636Z,36
2019-01-10T15:52:16.920Z,36.5
2019-01-10T15:55:38.975Z,37.3
2019-01-10T15:59:01.399Z,37.1
2019-01-10T16:02:23.406Z,36.7
2019-01-10T16:05:45.587Z,36.8
2019-01-10T16:09:07.780Z,36.5
2019-01-10T16:12:29.879Z,36.4
2019-01-10T16:15:52.235Z,36.4
2019-01-10T16:19:14.288Z,36.3
2019-01-10T16:22:36.380Z,36.4
2019-01-10T16:25:58.638Z,36.1
2019-01-10T16:29:20.742Z,35.9
2019-01-10T16:32:42.927Z,35.7
2019-01-10T16:36:05.171Z,35.9
2019-01-10T16:39:27.383Z,35.9
2019-01-10T16:42:49.448Z,35.9
2019-01-10T16:46:11.756Z,35.6
2019-01-10T16:49:33.803Z,35.6
2019-01-10T16:52:56.044Z,35.5
2019-01-10T16:56:18.218Z,39.1
2019-01-10T16:59:40.322Z,39.5
2019-01-10T17:03:02.610Z,39.7
2019-01-10T17:06:24.750Z,39.4
2019-01-10T17:09:46.855Z,39.2
2019-01-10T17:13:09.077Z,39.1
2019-01-10T17:16:31.301Z,38.9
2019-01-10T17:19:53.501Z,38.8
2019-01-10T17:23:15.544Z,38.7
2019-01-10T17:26:37.740Z,38.5
2019-01-10T17:29:59.894Z,38.3
2019-01-10T17:33:22.092Z,38.2
2019-01-10T17:36:44.263Z,38.1
2019-01-10T17:40:06.526Z,38
2019-01-10T17:43:28.605Z,38
2019-01-10T17:46:50.847Z,37.8
2019-01-10T17:50:13.028Z,37.7
2019-01-10T17:53:35.193Z,37.7
2019-01-10T17:56:57.288Z,37.6
2019-01-10T18:00:19.583Z,37.5
2019-01-10T18:03:41.719Z,37.4
2019-01-10T18:07:03.831Z,37.4
2019-01-10T18:10:27.377Z,37.3
2019-01-10T18:13:48.202Z,37.3
2019-01-10T18:17:12.034Z,37.2
2019-01-10T18:20:32.600Z,37.1
2019-01-10T18:23:54.695Z,37
2019-01-10T18:27:16.935Z,37
2019-01-10T18:30:40.068Z,36.9
2019-01-10T18:34:01.348Z,36.9
2019-01-10T18:37:23.501Z,36.8
2019-01-10T18:40:45.604Z,36.7
2019-01-10T18:44:07.868Z,36.7
2019-01-10T18:47:29.926Z,36.7
2019-01-10T18:50:52.117Z,36.7
2019-01-10T18:54:14.290Z,36.6
2019-01-10T18:57:36.480Z,36.6
2019-01-10T19:00:58.627Z,36.5
2019-01-10T19:04:20.803Z,36.6
2019-01-10T19:07:43.052Z,36.5
2019-01-10T19:11:05.149Z,36.4
2019-01-10T19:14:27.433Z,36.4
2019-01-10T19:17:49.515Z,36.5
2019-01-10T19:21:11.768Z,36.4
2019-01-10T19:24:33.853Z,36.3
2019-01-10T19:27:56.144Z,36.3
2019-01-10T19:31:18.211Z,36.3
2019-01-10T19:34:40.504Z,36.3
2019-01-10T19:38:02.567Z,36.1
2019-01-10T19:41:24.745Z,36.1
2019-01-10T19:44:46.984Z,36.1
2019-01-10T19:48:09.096Z,36.1
2019-01-10T19:51:31.351Z,36.1
2019-01-10T19:54:53.521Z,36.1
2019-01-10T19:58:15.608Z,36
2019-01-10T20:01:37.817Z,35.9
2019-01-10T20:05:00.030Z,36
2019-01-10T20:08:22.153Z,35.9
2019-01-10T20:11:44.429Z,35.8
2019-01-10T20:15:06.494Z,35.8
2019-01-10T20:18:28.737Z,35.8
2019-01-10T20:21:50.844Z,35.8
2019-01-10T20:25:13.089Z,35.8
2019-01-10T20:28:35.179Z,35.7
2019-01-10T20:31:57.434Z,35.7
2019-01-10T20:35:19.524Z,35.7
2019-01-10T20:38:41.710Z,35.6
2019-01-10T20:42:03.870Z,35.6
2019-01-10T20:45:26.055Z,35.6
2019-01-10T20:48:48.294Z,35.6
2019-01-10T20:52:10.396Z,35.6
2019-01-10T20:55:32.567Z,35.6
2019-01-10T20:58:54.815Z,35.5
2019-01-10T21:02:16.924Z,35.4
2019-01-10T21:05:39.096Z,35.5
2019-01-10T21:09:01.328Z,35.5
2019-01-10T21:12:23.519Z,35.5
2019-01-10T21:15:45.691Z,35.4
2019-01-10T21:19:07.793Z,35.4
2019-01-10T21:22:30.127Z,35.4
2019-01-10T21:25:55.262Z,35.4
2019-01-10T21:29:14.397Z,35.4
2019-01-10T21:32:36.491Z,35.6
2019-01-10T21:35:58.687Z,36.4
2019-01-10T21:39:20.892Z,36.7
2019-01-10T21:42:43.077Z,36.7
2019-01-10T21:46:05.168Z,36.4
2019-01-10T21:49:27.350Z,36.3
2019-01-10T21:52:49.543Z,36.3
2019-01-10T21:56:11.734Z,36.1
2019-01-10T21:59:33.936Z,35.9
2019-01-10T22:02:56.123Z,35.9
2019-01-10T22:06:18.212Z,35.7
2019-01-10T22:09:40.379Z,35.6
2019-01-10T22:13:02.665Z,35.6
2019-01-10T22:16:24.794Z,35.5
2019-01-10T22:19:46.939Z,35.6
2019-01-10T22:23:09.169Z,35.3
2019-01-10T22:26:31.404Z,35.2
2019-01-10T22:29:53.428Z,35
2019-01-10T22:33:15.609Z,34.9
2019-01-10T22:36:37.883Z,35
2019-01-10T22:39:59.970Z,35
2019-01-10T22:43:22.294Z,35
2019-01-10T22:46:45.374Z,34.9
2019-01-10T22:50:06.549Z,34.9
2019-01-10T22:53:28.863Z,35
2019-01-10T22:56:50.872Z,34.9
2019-01-10T23:00:13.007Z,34.9
2019-01-10T23:03:35.157Z,34.9
2019-01-10T23:06:57.441Z,34.9
2019-01-10T23:10:19.580Z,34.9
2019-01-10T23:13:41.782Z,34.8
2019-01-10T23:17:03.873Z,34.8
2019-01-10T23:20:26.035Z,34.8
2019-01-10T23:23:48.211Z,34.8
2019-01-10T23:27:10.569Z,34.8
2019-01-10T23:30:32.594Z,34.8
2019-01-10T23:33:54.865Z,34.8
2019-01-10T23:37:16.913Z,34.8
2019-01-10T23:40:39.067Z,34.7
2019-01-10T23:44:01.286Z,34.8
2019-01-10T23:47:23.426Z,34.8
2019-01-10T23:50:45.603Z,34.8
2019-01-10T23:54:07.914Z,34.8
2019-01-10T23:57:29.958Z,34.7
